sensor_id;sensor_type;location;lat;lon;timestamp;P1;durP1;ratioP1;P2;durP2;ratioP2
15968;SDS011;8085;53.472;9.794;2023-12-20T00:00:19;8.82;;;1.17;;
15968;SDS011;8085;53.472;9.794;2023-12-20T00:02:46;14.93;;;1.35;;
15968;SDS011;8085;53.472;9.794;2023-12-20T00:05:13;6.15;;;1.08;;
15968;SDS011;8085;53.472;9.794;2023-12-20T00:07:40;22.00;;;2.10;;
15968;SDS011;8085;53.472;9.794;2023-12-20T00:10:08;9.02;;;1.00;;
15968;SDS011;8085;53.472;9.794;2023-12-20T00:12:38;11.63;;;0.93;;
15968;SDS011;8085;53.472;9.794;2023-12-20T00:15:06;7.15;;;0.98;;
15968;SDS011;8085;53.472;9.794;2023-12-20T00:17:33;16.42;;;1.73;;
15968;SDS011;8085;53.472;9.794;2023-12-20T00:20:00;13.95;;;1.23;;
15968;SDS011;8085;53.472;9.794;2023-12-20T00:22:27;10.05;;;1.83;;
15968;SDS011;8085;53.472;9.794;2023-12-20T00:24:54;11.48;;;1.02;;
15968;SDS011;8085;53.472;9.794;2023-12-20T00:27:22;9.63;;;1.42;;
15968;SDS011;8085;53.472;9.794;2023-12-20T00:29:49;7.57;;;1.15;;
15968;SDS011;8085;53.472;9.794;2023-12-20T00:32:16;12.98;;;1.92;;
15968;SDS011;8085;53.472;9.794;2023-12-20T00:34:44;9.57;;;1.42;;
15968;SDS011;8085;53.472;9.794;2023-12-20T00:37:11;8.77;;;1.05;;
15968;SDS011;8085;53.472;9.794;2023-12-20T00:39:38;15.93;;;1.35;;
15968;SDS011;8085;53.472;9.794;2023-12-20T00:42:05;14.23;;;1.20;;
15968;SDS011;8085;53.472;9.794;2023-12-20T00:44:33;13.48;;;1.23;;
15968;SDS011;8085;53.472;9.794;2023-12-20T00:47:00;10.70;;;1.10;;
15968;SDS011;8085;53.472;9.794;2023-12-20T00:49:27;12.35;;;1.45;;
15968;SDS011;8085;53.472;9.794;2023-12-20T00:51:54;17.50;;;2.15;;
15968;SDS011;8085;53.472;9.794;2023-12-20T00:54:21;14.07;;;1.20;;
15968;SDS011;8085;53.472;9.794;2023-12-20T00:56:47;6.00;;;1.02;;
15968;SDS011;8085;53.472;9.794;2023-12-20T00:59:16;9.57;;;1.10;;
15968;SDS011;8085;53.472;9.794;2023-12-20T01:01:45;11.73;;;1.00;;
15968;SDS011;8085;53.472;9.794;2023-12-20T01:04:11;14.63;;;1.15;;
15968;SDS011;8085;53.472;9.794;2023-12-20T01:06:38;9.35;;;1.40;;
15968;SDS011;8085;53.472;9.794;2023-12-20T01:09:05;13.98;;;1.48;;
15968;SDS011;8085;53.472;9.794;2023-12-20T01:11:32;13.07;;;1.33;;
15968;SDS011;8085;53.472;9.794;2023-12-20T01:13:59;12.10;;;0.88;;
15968;SDS011;8085;53.472;9.794;2023-12-20T01:16:26;17.15;;;1.38;;
15968;SDS011;8085;53.472;9.794;2023-12-20T01:18:54;9.98;;;0.98;;
15968;SDS011;8085;53.472;9.794;2023-12-20T01:21:21;11.27;;;1.30;;
15968;SDS011;8085;53.472;9.794;2023-12-20T01:23:48;9.35;;;1.08;;
15968;SDS011;8085;53.472;9.794;2023-12-20T01:26:14;12.70;;;1.15;;
15968;SDS011;8085;53.472;9.794;2023-12-20T01:28:41;9.05;;;1.27;;
15968;SDS011;8085;53.472;9.794;2023-12-20T01:31:08;14.52;;;1.33;;
15968;SDS011;8085;53.472;9.794;2023-12-20T01:33:35;8.75;;;1.33;;
15968;SDS011;8085;53.472;9.794;2023-12-20T01:36:04;11.57;;;1.02;;
15968;SDS011;8085;53.472;9.794;2023-12-20T01:38:31;10.85;;;1.25;;
15968;SDS011;8085;53.472;9.794;2023-12-20T01:40:58;8.88;;;1.05;;
15968;SDS011;8085;53.472;9.794;2023-12-20T01:43:25;10.07;;;1.15;;
15968;SDS011;8085;53.472;9.794;2023-12-20T01:45:52;12.82;;;1.20;;
15968;SDS011;8085;53.472;9.794;2023-12-20T01:48:21;12.82;;;1.17;;
15968;SDS011;8085;53.472;9.794;2023-12-20T01:50:48;15.32;;;2.20;;
15968;SDS011;8085;53.472;9.794;2023-12-20T01:53:17;15.55;;;1.23;;
15968;SDS011;8085;53.472;9.794;2023-12-20T01:55:46;14.68;;;2.25;;
15968;SDS011;8085;53.472;9.794;2023-12-20T01:58:15;8.15;;;1.73;;
15968;SDS011;8085;53.472;9.794;2023-12-20T02:00:42;11.13;;;1.27;;
15968;SDS011;8085;53.472;9.794;2023-12-20T02:03:09;11.90;;;2.05;;
15968;SDS011;8085;53.472;9.794;2023-12-20T02:05:36;10.10;;;1.33;;
15968;SDS011;8085;53.472;9.794;2023-12-20T02:08:05;11.30;;;1.10;;
15968;SDS011;8085;53.472;9.794;2023-12-20T02:10:34;8.18;;;1.45;;
15968;SDS011;8085;53.472;9.794;2023-12-20T02:13:01;13.63;;;2.15;;
15968;SDS011;8085;53.472;9.794;2023-12-20T02:15:28;16.77;;;1.40;;
15968;SDS011;8085;53.472;9.794;2023-12-20T02:17:55;11.07;;;2.13;;
15968;SDS011;8085;53.472;9.794;2023-12-20T02:20:22;9.65;;;1.65;;
15968;SDS011;8085;53.472;9.794;2023-12-20T02:22:50;7.65;;;0.98;;
15968;SDS011;8085;53.472;9.794;2023-12-20T02:25:17;12.98;;;1.63;;
15968;SDS011;8085;53.472;9.794;2023-12-20T02:27:44;11.15;;;1.17;;
15968;SDS011;8085;53.472;9.794;2023-12-20T02:30:11;10.65;;;1.30;;
15968;SDS011;8085;53.472;9.794;2023-12-20T02:32:38;10.65;;;1.48;;
15968;SDS011;8085;53.472;9.794;2023-12-20T02:35:06;11.63;;;1.30;;
15968;SDS011;8085;53.472;9.794;2023-12-20T02:37:33;8.50;;;1.20;;
15968;SDS011;8085;53.472;9.794;2023-12-20T02:40:01;15.80;;;1.45;;
15968;SDS011;8085;53.472;9.794;2023-12-20T02:42:29;11.23;;;1.55;;
15968;SDS011;8085;53.472;9.794;2023-12-20T02:44:56;17.42;;;2.00;;
15968;SDS011;8085;53.472;9.794;2023-12-20T02:47:23;10.05;;;1.00;;
15968;SDS011;8085;53.472;9.794;2023-12-20T02:49:50;8.15;;;1.02;;
15968;SDS011;8085;53.472;9.794;2023-12-20T02:52:18;12.07;;;1.15;;
15968;SDS011;8085;53.472;9.794;2023-12-20T02:54:44;7.30;;;1.30;;
15968;SDS011;8085;53.472;9.794;2023-12-20T02:57:13;12.15;;;2.00;;
15968;SDS011;8085;53.472;9.794;2023-12-20T02:59:39;11.60;;;1.40;;
15968;SDS011;8085;53.472;9.794;2023-12-20T03:02:06;14.10;;;1.60;;
15968;SDS011;8085;53.472;9.794;2023-12-20T03:04:33;12.30;;;1.92;;
15968;SDS011;8085;53.472;9.794;2023-12-20T03:07:00;15.25;;;2.83;;
15968;SDS011;8085;53.472;9.794;2023-12-20T03:09:27;6.60;;;1.40;;
15968;SDS011;8085;53.472;9.794;2023-12-20T03:11:53;8.20;;;1.33;;
15968;SDS011;8085;53.472;9.794;2023-12-20T03:14:22;11.82;;;1.50;;
15968;SDS011;8085;53.472;9.794;2023-12-20T03:16:49;9.23;;;1.38;;
15968;SDS011;8085;53.472;9.794;2023-12-20T03:19:16;13.27;;;1.20;;
15968;SDS011;8085;53.472;9.794;2023-12-20T03:21:43;16.30;;;1.38;;
15968;SDS011;8085;53.472;9.794;2023-12-20T03:24:10;7.40;;;1.33;;
15968;SDS011;8085;53.472;9.794;2023-12-20T03:26:37;9.68;;;1.42;;
15968;SDS011;8085;53.472;9.794;2023-12-20T03:29:04;5.43;;;0.90;;
15968;SDS011;8085;53.472;9.794;2023-12-20T03:31:32;16.95;;;1.50;;
15968;SDS011;8085;53.472;9.794;2023-12-20T03:33:59;8.98;;;1.33;;
15968;SDS011;8085;53.472;9.794;2023-12-20T03:36:26;11.63;;;1.10;;
15968;SDS011;8085;53.472;9.794;2023-12-20T03:38:53;9.38;;;1.33;;
15968;SDS011;8085;53.472;9.794;2023-12-20T03:41:20;11.23;;;1.13;;
15968;SDS011;8085;53.472;9.794;2023-12-20T03:43:46;9.68;;;1.15;;
15968;SDS011;8085;53.472;9.794;2023-12-20T03:46:13;6.68;;;1.42;;
15968;SDS011;8085;53.472;9.794;2023-12-20T03:48:41;12.90;;;1.35;;
15968;SDS011;8085;53.472;9.794;2023-12-20T03:51:08;10.50;;;1.33;;
15968;SDS011;8085;53.472;9.794;2023-12-20T03:53:35;9.80;;;1.00;;
15968;SDS011;8085;53.472;9.794;2023-12-20T03:56:02;8.23;;;1.25;;
15968;SDS011;8085;53.472;9.794;2023-12-20T03:58:29;8.88;;;1.33;;
15968;SDS011;8085;53.472;9.794;2023-12-20T04:00:56;8.90;;;1.02;;
15968;SDS011;8085;53.472;9.794;2023-12-20T04:03:23;11.43;;;1.45;;
15968;SDS011;8085;53.472;9.794;2023-12-20T04:05:51;12.40;;;1.42;;
15968;SDS011;8085;53.472;9.794;2023-12-20T04:08:18;4.18;;;0.90;;
15968;SDS011;8085;53.472;9.794;2023-12-20T04:10:45;7.40;;;1.33;;
15968;SDS011;8085;53.472;9.794;2023-12-20T04:13:12;13.75;;;2.08;;
15968;SDS011;8085;53.472;9.794;2023-12-20T04:15:39;12.52;;;1.63;;
15968;SDS011;8085;53.472;9.794;2023-12-20T04:18:06;10.13;;;1.33;;
15968;SDS011;8085;53.472;9.794;2023-12-20T04:20:33;11.70;;;1.40;;
15968;SDS011;8085;53.472;9.794;2023-12-20T04:23:01;8.07;;;1.27;;
15968;SDS011;8085;53.472;9.794;2023-12-20T04:25:28;10.13;;;2.13;;
15968;SDS011;8085;53.472;9.794;2023-12-20T04:27:55;7.43;;;1.20;;
15968;SDS011;8085;53.472;9.794;2023-12-20T04:30:22;8.65;;;1.83;;
15968;SDS011;8085;53.472;9.794;2023-12-20T04:32:49;7.72;;;1.45;;
15968;SDS011;8085;53.472;9.794;2023-12-20T04:35:15;10.90;;;1.67;;
15968;SDS011;8085;53.472;9.794;2023-12-20T04:37:42;12.63;;;1.92;;
15968;SDS011;8085;53.472;9.794;2023-12-20T04:40:11;12.30;;;2.05;;
15968;SDS011;8085;53.472;9.794;2023-12-20T04:42:40;15.65;;;2.00;;
15968;SDS011;8085;53.472;9.794;2023-12-20T04:45:07;13.23;;;2.20;;
15968;SDS011;8085;53.472;9.794;2023-12-20T04:47:34;11.02;;;1.65;;
15968;SDS011;8085;53.472;9.794;2023-12-20T04:50:01;11.77;;;1.67;;
15968;SDS011;8085;53.472;9.794;2023-12-20T04:52:28;7.22;;;1.65;;
15968;SDS011;8085;53.472;9.794;2023-12-20T04:54:55;17.95;;;2.05;;
15968;SDS011;8085;53.472;9.794;2023-12-20T04:57:23;14.15;;;1.75;;
15968;SDS011;8085;53.472;9.794;2023-12-20T04:59:50;12.02;;;1.65;;
15968;SDS011;8085;53.472;9.794;2023-12-20T05:02:16;9.25;;;1.90;;
15968;SDS011;8085;53.472;9.794;2023-12-20T05:04:43;9.50;;;1.52;;
15968;SDS011;8085;53.472;9.794;2023-12-20T05:07:10;19.42;;;2.00;;
15968;SDS011;8085;53.472;9.794;2023-12-20T05:09:37;11.88;;;2.15;;
15968;SDS011;8085;53.472;9.794;2023-12-20T05:12:04;11.15;;;1.73;;
15968;SDS011;8085;53.472;9.794;2023-12-20T05:14:33;13.30;;;1.85;;
15968;SDS011;8085;53.472;9.794;2023-12-20T05:17:00;11.27;;;1.70;;
15968;SDS011;8085;53.472;9.794;2023-12-20T05:19:28;11.77;;;1.67;;
15968;SDS011;8085;53.472;9.794;2023-12-20T05:21:55;4.40;;;1.27;;
15968;SDS011;8085;53.472;9.794;2023-12-20T05:24:22;13.68;;;1.90;;
15968;SDS011;8085;53.472;9.794;2023-12-20T05:26:49;11.60;;;1.40;;
15968;SDS011;8085;53.472;9.794;2023-12-20T05:29:16;8.23;;;1.73;;
15968;SDS011;8085;53.472;9.794;2023-12-20T05:31:44;9.30;;;1.70;;
15968;SDS011;8085;53.472;9.794;2023-12-20T05:34:11;15.23;;;2.08;;
15968;SDS011;8085;53.472;9.794;2023-12-20T05:36:38;11.55;;;1.55;;
15968;SDS011;8085;53.472;9.794;2023-12-20T05:39:05;7.85;;;1.55;;
15968;SDS011;8085;53.472;9.794;2023-12-20T05:41:32;12.20;;;1.30;;
15968;SDS011;8085;53.472;9.794;2023-12-20T05:43:59;12.13;;;1.17;;
15968;SDS011;8085;53.472;9.794;2023-12-20T05:46:26;11.52;;;1.77;;
15968;SDS011;8085;53.472;9.794;2023-12-20T05:48:54;10.23;;;1.60;;
15968;SDS011;8085;53.472;9.794;2023-12-20T05:51:21;16.10;;;1.95;;
15968;SDS011;8085;53.472;9.794;2023-12-20T05:53:48;9.02;;;1.40;;
15968;SDS011;8085;53.472;9.794;2023-12-20T05:56:15;9.48;;;1.98;;
15968;SDS011;8085;53.472;9.794;2023-12-20T05:58:42;10.02;;;1.63;;
15968;SDS011;8085;53.472;9.794;2023-12-20T06:01:09;11.70;;;1.60;;
15968;SDS011;8085;53.472;9.794;2023-12-20T06:03:37;6.65;;;1.35;;
15968;SDS011;8085;53.472;9.794;2023-12-20T06:06:09;12.68;;;1.92;;
15968;SDS011;8085;53.472;9.794;2023-12-20T06:08:36;9.15;;;1.65;;
15968;SDS011;8085;53.472;9.794;2023-12-20T06:11:03;8.48;;;1.40;;
15968;SDS011;8085;53.472;9.794;2023-12-20T06:13:30;10.68;;;1.80;;
15968;SDS011;8085;53.472;9.794;2023-12-20T06:15:57;8.18;;;1.48;;
15968;SDS011;8085;53.472;9.794;2023-12-20T06:18:24;12.57;;;1.80;;
15968;SDS011;8085;53.472;9.794;2023-12-20T06:20:50;10.20;;;1.33;;
15968;SDS011;8085;53.472;9.794;2023-12-20T06:23:19;10.73;;;1.50;;
15968;SDS011;8085;53.472;9.794;2023-12-20T06:25:46;10.75;;;1.63;;
15968;SDS011;8085;53.472;9.794;2023-12-20T06:28:12;10.02;;;1.65;;
15968;SDS011;8085;53.472;9.794;2023-12-20T06:30:40;7.13;;;1.30;;
15968;SDS011;8085;53.472;9.794;2023-12-20T06:33:07;10.52;;;1.50;;
15968;SDS011;8085;53.472;9.794;2023-12-20T06:35:35;7.07;;;1.20;;
15968;SDS011;8085;53.472;9.794;2023-12-20T06:38:02;7.25;;;1.10;;
15968;SDS011;8085;53.472;9.794;2023-12-20T06:40:31;11.93;;;2.17;;
15968;SDS011;8085;53.472;9.794;2023-12-20T06:42:58;6.72;;;1.05;;
15968;SDS011;8085;53.472;9.794;2023-12-20T06:45:25;14.00;;;1.60;;
15968;SDS011;8085;53.472;9.794;2023-12-20T06:47:52;16.38;;;2.00;;
15968;SDS011;8085;53.472;9.794;2023-12-20T06:50:20;11.63;;;1.67;;
15968;SDS011;8085;53.472;9.794;2023-12-20T06:52:47;12.98;;;1.63;;
15968;SDS011;8085;53.472;9.794;2023-12-20T06:55:14;11.85;;;2.10;;
15968;SDS011;8085;53.472;9.794;2023-12-20T06:57:43;12.43;;;2.05;;
15968;SDS011;8085;53.472;9.794;2023-12-20T07:00:11;8.07;;;1.50;;
15968;SDS011;8085;53.472;9.794;2023-12-20T07:02:39;15.50;;;1.90;;
15968;SDS011;8085;53.472;9.794;2023-12-20T07:05:06;12.90;;;1.77;;
15968;SDS011;8085;53.472;9.794;2023-12-20T07:07:33;15.63;;;2.10;;
15968;SDS011;8085;53.472;9.794;2023-12-20T07:10:00;10.68;;;1.45;;
15968;SDS011;8085;53.472;9.794;2023-12-20T07:12:27;9.52;;;2.08;;
15968;SDS011;8085;53.472;9.794;2023-12-20T07:14:55;11.63;;;1.60;;
15968;SDS011;8085;53.472;9.794;2023-12-20T07:17:22;12.55;;;1.92;;
15968;SDS011;8085;53.472;9.794;2023-12-20T07:19:49;11.25;;;1.52;;
15968;SDS011;8085;53.472;9.794;2023-12-20T07:22:16;15.43;;;2.03;;
15968;SDS011;8085;53.472;9.794;2023-12-20T07:24:43;13.88;;;1.73;;
15968;SDS011;8085;53.472;9.794;2023-12-20T07:27:11;11.45;;;1.83;;
15968;SDS011;8085;53.472;9.794;2023-12-20T07:29:38;13.93;;;2.42;;
15968;SDS011;8085;53.472;9.794;2023-12-20T07:32:07;12.00;;;1.63;;
15968;SDS011;8085;53.472;9.794;2023-12-20T07:34:33;10.80;;;1.85;;
15968;SDS011;8085;53.472;9.794;2023-12-20T07:37:00;18.08;;;1.90;;
15968;SDS011;8085;53.472;9.794;2023-12-20T07:39:27;10.18;;;1.42;;
15968;SDS011;8085;53.472;9.794;2023-12-20T07:41:54;15.85;;;2.22;;
15968;SDS011;8085;53.472;9.794;2023-12-20T07:44:21;18.27;;;2.25;;
15968;SDS011;8085;53.472;9.794;2023-12-20T07:46:48;14.65;;;1.77;;
15968;SDS011;8085;53.472;9.794;2023-12-20T07:49:16;7.20;;;1.27;;
15968;SDS011;8085;53.472;9.794;2023-12-20T07:51:43;20.48;;;2.60;;
15968;SDS011;8085;53.472;9.794;2023-12-20T07:54:10;15.93;;;2.15;;
15968;SDS011;8085;53.472;9.794;2023-12-20T07:56:37;14.68;;;1.95;;
15968;SDS011;8085;53.472;9.794;2023-12-20T07:59:05;13.65;;;1.75;;
15968;SDS011;8085;53.472;9.794;2023-12-20T08:01:32;12.63;;;1.48;;
15968;SDS011;8085;53.472;9.794;2023-12-20T08:03:58;11.43;;;2.10;;
15968;SDS011;8085;53.472;9.794;2023-12-20T08:06:27;10.70;;;1.75;;
15968;SDS011;8085;53.472;9.794;2023-12-20T08:08:54;14.05;;;2.00;;
15968;SDS011;8085;53.472;9.794;2023-12-20T08:11:21;11.48;;;1.80;;
15968;SDS011;8085;53.472;9.794;2023-12-20T08:13:47;10.25;;;2.10;;
15968;SDS011;8085;53.472;9.794;2023-12-20T08:16:14;15.73;;;1.92;;
15968;SDS011;8085;53.472;9.794;2023-12-20T08:18:42;10.45;;;2.10;;
15968;SDS011;8085;53.472;9.794;2023-12-20T08:21:09;10.77;;;1.67;;
15968;SDS011;8085;53.472;9.794;2023-12-20T08:23:38;14.13;;;1.88;;
15968;SDS011;8085;53.472;9.794;2023-12-20T08:26:05;10.70;;;1.92;;
15968;SDS011;8085;53.472;9.794;2023-12-20T08:28:32;18.80;;;2.47;;
15968;SDS011;8085;53.472;9.794;2023-12-20T08:31:00;12.25;;;2.03;;
15968;SDS011;8085;53.472;9.794;2023-12-20T08:33:27;9.55;;;1.65;;
15968;SDS011;8085;53.472;9.794;2023-12-20T08:35:54;9.82;;;1.80;;
15968;SDS011;8085;53.472;9.794;2023-12-20T08:38:21;11.13;;;2.10;;
15968;SDS011;8085;53.472;9.794;2023-12-20T08:40:49;15.57;;;1.92;;
15968;SDS011;8085;53.472;9.794;2023-12-20T08:43:16;17.88;;;2.45;;
15968;SDS011;8085;53.472;9.794;2023-12-20T08:45:43;16.27;;;2.35;;
15968;SDS011;8085;53.472;9.794;2023-12-20T08:48:10;11.98;;;2.53;;
15968;SDS011;8085;53.472;9.794;2023-12-20T08:50:37;15.85;;;2.30;;
15968;SDS011;8085;53.472;9.794;2023-12-20T08:53:04;11.93;;;2.03;;
15968;SDS011;8085;53.472;9.794;2023-12-20T08:55:31;11.90;;;1.70;;
15968;SDS011;8085;53.472;9.794;2023-12-20T08:57:59;12.65;;;1.52;;
15968;SDS011;8085;53.472;9.794;2023-12-20T09:00:26;9.95;;;1.75;;
15968;SDS011;8085;53.472;9.794;2023-12-20T09:02:52;10.55;;;1.48;;
15968;SDS011;8085;53.472;9.794;2023-12-20T09:05:20;8.93;;;1.48;;
15968;SDS011;8085;53.472;9.794;2023-12-20T09:07:47;6.72;;;1.25;;
15968;SDS011;8085;53.472;9.794;2023-12-20T09:10:14;3.75;;;0.77;;
15968;SDS011;8085;53.472;9.794;2023-12-20T09:12:41;6.18;;;0.85;;
15968;SDS011;8085;53.472;9.794;2023-12-20T09:15:09;2.92;;;0.95;;
15968;SDS011;8085;53.472;9.794;2023-12-20T09:17:36;4.13;;;0.60;;
15968;SDS011;8085;53.472;9.794;2023-12-20T09:20:03;5.28;;;1.02;;
15968;SDS011;8085;53.472;9.794;2023-12-20T09:22:32;4.75;;;0.95;;
15968;SDS011;8085;53.472;9.794;2023-12-20T09:24:59;4.13;;;0.90;;
15968;SDS011;8085;53.472;9.794;2023-12-20T09:27:26;4.57;;;1.02;;
15968;SDS011;8085;53.472;9.794;2023-12-20T09:29:53;3.40;;;0.70;;
15968;SDS011;8085;53.472;9.794;2023-12-20T09:32:22;3.95;;;0.73;;
15968;SDS011;8085;53.472;9.794;2023-12-20T09:34:48;1.10;;;0.30;;
15968;SDS011;8085;53.472;9.794;2023-12-20T09:37:15;2.83;;;0.52;;
15968;SDS011;8085;53.472;9.794;2023-12-20T09:39:43;1.75;;;0.30;;
15968;SDS011;8085;53.472;9.794;2023-12-20T09:42:11;2.83;;;0.28;;
15968;SDS011;8085;53.472;9.794;2023-12-20T09:44:42;2.00;;;0.35;;
15968;SDS011;8085;53.472;9.794;2023-12-20T09:47:09;1.90;;;0.50;;
15968;SDS011;8085;53.472;9.794;2023-12-20T09:49:38;2.05;;;0.50;;
15968;SDS011;8085;53.472;9.794;2023-12-20T09:52:05;1.27;;;0.40;;
15968;SDS011;8085;53.472;9.794;2023-12-20T09:54:35;3.30;;;0.40;;
15968;SDS011;8085;53.472;9.794;2023-12-20T09:57:02;0.70;;;0.20;;
15968;SDS011;8085;53.472;9.794;2023-12-20T09:59:30;3.38;;;0.45;;
15968;SDS011;8085;53.472;9.794;2023-12-20T10:01:57;1.48;;;0.30;;
15968;SDS011;8085;53.472;9.794;2023-12-20T10:04:28;3.70;;;0.40;;
15968;SDS011;8085;53.472;9.794;2023-12-20T10:07:02;1.88;;;0.35;;
15968;SDS011;8085;53.472;9.794;2023-12-20T10:09:30;0.95;;;0.40;;
15968;SDS011;8085;53.472;9.794;2023-12-20T10:11:58;1.00;;;0.25;;
15968;SDS011;8085;53.472;9.794;2023-12-20T10:14:25;1.02;;;0.22;;
15968;SDS011;8085;53.472;9.794;2023-12-20T10:16:52;0.50;;;0.30;;
15968;SDS011;8085;53.472;9.794;2023-12-20T10:19:20;3.10;;;0.30;;
15968;SDS011;8085;53.472;9.794;2023-12-20T10:21:47;0.63;;;0.13;;
15968;SDS011;8085;53.472;9.794;2023-12-20T10:24:17;1.00;;;0.20;;
15968;SDS011;8085;53.472;9.794;2023-12-20T10:26:44;0.65;;;0.30;;
15968;SDS011;8085;53.472;9.794;2023-12-20T10:29:11;2.70;;;0.30;;
15968;SDS011;8085;53.472;9.794;2023-12-20T10:31:38;1.33;;;0.20;;
15968;SDS011;8085;53.472;9.794;2023-12-20T10:34:05;3.08;;;0.30;;
15968;SDS011;8085;53.472;9.794;2023-12-20T10:36:32;3.58;;;0.50;;
15968;SDS011;8085;53.472;9.794;2023-12-20T10:39:01;2.40;;;0.40;;
15968;SDS011;8085;53.472;9.794;2023-12-20T10:41:32;3.50;;;0.30;;
15968;SDS011;8085;53.472;9.794;2023-12-20T10:44:01;2.92;;;0.22;;
15968;SDS011;8085;53.472;9.794;2023-12-20T10:46:31;3.05;;;0.47;;
15968;SDS011;8085;53.472;9.794;2023-12-20T10:48:57;3.78;;;0.52;;
15968;SDS011;8085;53.472;9.794;2023-12-20T10:51:25;3.45;;;0.55;;
15968;SDS011;8085;53.472;9.794;2023-12-20T10:53:53;3.53;;;0.70;;
15968;SDS011;8085;53.472;9.794;2023-12-20T10:56:25;6.32;;;0.68;;
15968;SDS011;8085;53.472;9.794;2023-12-20T10:58:59;3.88;;;0.63;;
15968;SDS011;8085;53.472;9.794;2023-12-20T11:01:29;1.65;;;0.30;;
15968;SDS011;8085;53.472;9.794;2023-12-20T11:03:56;4.97;;;0.40;;
15968;SDS011;8085;53.472;9.794;2023-12-20T11:06:29;5.47;;;0.80;;
15968;SDS011;8085;53.472;9.794;2023-12-20T11:09:06;4.35;;;0.65;;
15968;SDS011;8085;53.472;9.794;2023-12-20T11:11:42;5.95;;;0.60;;
15968;SDS011;8085;53.472;9.794;2023-12-20T11:14:27;2.15;;;0.60;;
15968;SDS011;8085;53.472;9.794;2023-12-20T11:17:06;5.65;;;0.63;;
15968;SDS011;8085;53.472;9.794;2023-12-20T11:19:35;7.65;;;1.13;;
15968;SDS011;8085;53.472;9.794;2023-12-20T11:22:03;6.80;;;0.52;;
15968;SDS011;8085;53.472;9.794;2023-12-20T11:24:31;8.15;;;0.77;;
15968;SDS011;8085;53.472;9.794;2023-12-20T11:26:59;7.40;;;1.17;;
15968;SDS011;8085;53.472;9.794;2023-12-20T11:29:32;7.22;;;1.05;;
15968;SDS011;8085;53.472;9.794;2023-12-20T11:32:00;2.63;;;0.55;;
15968;SDS011;8085;53.472;9.794;2023-12-20T11:34:29;6.47;;;0.80;;
15968;SDS011;8085;53.472;9.794;2023-12-20T11:36:59;5.55;;;0.77;;
15968;SDS011;8085;53.472;9.794;2023-12-20T11:39:26;9.18;;;0.70;;
15968;SDS011;8085;53.472;9.794;2023-12-20T11:41:55;8.13;;;0.77;;
15968;SDS011;8085;53.472;9.794;2023-12-20T11:44:22;7.68;;;0.70;;
15968;SDS011;8085;53.472;9.794;2023-12-20T11:46:52;5.35;;;0.80;;
15968;SDS011;8085;53.472;9.794;2023-12-20T11:49:23;7.10;;;0.80;;
15968;SDS011;8085;53.472;9.794;2023-12-20T11:51:51;7.88;;;1.38;;
15968;SDS011;8085;53.472;9.794;2023-12-20T11:54:18;5.30;;;0.80;;
15968;SDS011;8085;53.472;9.794;2023-12-20T11:56:45;9.60;;;0.80;;
15968;SDS011;8085;53.472;9.794;2023-12-20T11:59:12;10.88;;;0.95;;
15968;SDS011;8085;53.472;9.794;2023-12-20T12:01:39;4.00;;;0.80;;
15968;SDS011;8085;53.472;9.794;2023-12-20T12:04:07;7.32;;;0.90;;
15968;SDS011;8085;53.472;9.794;2023-12-20T12:06:35;4.00;;;0.75;;
15968;SDS011;8085;53.472;9.794;2023-12-20T12:09:02;10.50;;;1.30;;
15968;SDS011;8085;53.472;9.794;2023-12-20T12:11:29;6.43;;;1.27;;
15968;SDS011;8085;53.472;9.794;2023-12-20T12:13:56;8.75;;;1.02;;
15968;SDS011;8085;53.472;9.794;2023-12-20T12:16:23;8.25;;;1.08;;
15968;SDS011;8085;53.472;9.794;2023-12-20T12:18:55;8.25;;;0.93;;
15968;SDS011;8085;53.472;9.794;2023-12-20T12:21:24;3.47;;;0.57;;
15968;SDS011;8085;53.472;9.794;2023-12-20T12:23:51;2.45;;;0.57;;
15968;SDS011;8085;53.472;9.794;2023-12-20T12:26:18;4.15;;;0.77;;
15968;SDS011;8085;53.472;9.794;2023-12-20T12:28:45;3.05;;;0.70;;
15968;SDS011;8085;53.472;9.794;2023-12-20T12:31:15;7.10;;;0.90;;
15968;SDS011;8085;53.472;9.794;2023-12-20T12:33:42;12.13;;;0.98;;
15968;SDS011;8085;53.472;9.794;2023-12-20T12:36:10;6.28;;;1.05;;
15968;SDS011;8085;53.472;9.794;2023-12-20T12:38:42;3.90;;;0.82;;
15968;SDS011;8085;53.472;9.794;2023-12-20T12:41:09;5.95;;;1.10;;
15968;SDS011;8085;53.472;9.794;2023-12-20T12:43:38;7.50;;;0.80;;
15968;SDS011;8085;53.472;9.794;2023-12-20T12:46:05;3.80;;;0.80;;
15968;SDS011;8085;53.472;9.794;2023-12-20T12:48:32;6.20;;;0.75;;
15968;SDS011;8085;53.472;9.794;2023-12-20T12:50:59;3.85;;;0.85;;
15968;SDS011;8085;53.472;9.794;2023-12-20T12:53:26;5.35;;;1.10;;
15968;SDS011;8085;53.472;9.794;2023-12-20T12:55:54;6.78;;;1.17;;
15968;SDS011;8085;53.472;9.794;2023-12-20T12:58:21;7.30;;;1.08;;
15968;SDS011;8085;53.472;9.794;2023-12-20T13:00:50;10.65;;;1.45;;
15968;SDS011;8085;53.472;9.794;2023-12-20T13:03:17;8.57;;;1.10;;
15968;SDS011;8085;53.472;9.794;2023-12-20T13:05:44;6.57;;;1.25;;
15968;SDS011;8085;53.472;9.794;2023-12-20T13:08:12;11.88;;;1.38;;
15968;SDS011;8085;53.472;9.794;2023-12-20T13:10:39;10.52;;;1.45;;
15968;SDS011;8085;53.472;9.794;2023-12-20T13:13:07;7.57;;;1.08;;
15968;SDS011;8085;53.472;9.794;2023-12-20T13:15:34;7.72;;;1.50;;
15968;SDS011;8085;53.472;9.794;2023-12-20T13:18:01;9.70;;;1.65;;
15968;SDS011;8085;53.472;9.794;2023-12-20T13:20:29;13.65;;;1.73;;
15968;SDS011;8085;53.472;9.794;2023-12-20T13:22:56;9.45;;;1.80;;
15968;SDS011;8085;53.472;9.794;2023-12-20T13:25:23;14.90;;;1.70;;
15968;SDS011;8085;53.472;9.794;2023-12-20T13:27:50;9.60;;;1.98;;
15968;SDS011;8085;53.472;9.794;2023-12-20T13:30:18;14.82;;;1.58;;
15968;SDS011;8085;53.472;9.794;2023-12-20T13:32:45;13.35;;;1.77;;
15968;SDS011;8085;53.472;9.794;2023-12-20T13:35:12;14.80;;;1.65;;
15968;SDS011;8085;53.472;9.794;2023-12-20T13:37:39;13.55;;;2.00;;
15968;SDS011;8085;53.472;9.794;2023-12-20T13:40:06;15.18;;;1.95;;
15968;SDS011;8085;53.472;9.794;2023-12-20T13:42:34;24.00;;;2.40;;
15968;SDS011;8085;53.472;9.794;2023-12-20T13:45:01;16.67;;;2.60;;
15968;SDS011;8085;53.472;9.794;2023-12-20T13:47:31;17.08;;;2.40;;
15968;SDS011;8085;53.472;9.794;2023-12-20T13:49:58;17.67;;;1.67;;
15968;SDS011;8085;53.472;9.794;2023-12-20T13:52:25;12.75;;;1.65;;
15968;SDS011;8085;53.472;9.794;2023-12-20T13:54:52;24.38;;;2.92;;
15968;SDS011;8085;53.472;9.794;2023-12-20T13:57:18;21.27;;;1.98;;
15968;SDS011;8085;53.472;9.794;2023-12-20T13:59:45;13.52;;;1.83;;
15968;SDS011;8085;53.472;9.794;2023-12-20T14:02:12;11.80;;;2.00;;
15968;SDS011;8085;53.472;9.794;2023-12-20T14:04:41;12.55;;;1.63;;
15968;SDS011;8085;53.472;9.794;2023-12-20T14:07:08;15.15;;;1.85;;
15968;SDS011;8085;53.472;9.794;2023-12-20T14:09:35;14.77;;;1.65;;
15968;SDS011;8085;53.472;9.794;2023-12-20T14:12:03;17.80;;;2.35;;
15968;SDS011;8085;53.472;9.794;2023-12-20T14:14:31;9.35;;;1.70;;
15968;SDS011;8085;53.472;9.794;2023-12-20T14:16:58;11.32;;;2.33;;
15968;SDS011;8085;53.472;9.794;2023-12-20T14:19:24;15.45;;;2.33;;
15968;SDS011;8085;53.472;9.794;2023-12-20T14:21:53;11.07;;;1.63;;
15968;SDS011;8085;53.472;9.794;2023-12-20T14:24:20;15.63;;;2.25;;
15968;SDS011;8085;53.472;9.794;2023-12-20T14:26:47;11.32;;;1.90;;
15968;SDS011;8085;53.472;9.794;2023-12-20T14:29:14;14.23;;;2.20;;
15968;SDS011;8085;53.472;9.794;2023-12-20T14:31:41;10.52;;;1.88;;
15968;SDS011;8085;53.472;9.794;2023-12-20T14:34:07;13.63;;;2.00;;
15968;SDS011;8085;53.472;9.794;2023-12-20T14:36:34;14.77;;;2.47;;
15968;SDS011;8085;53.472;9.794;2023-12-20T14:39:02;12.45;;;2.22;;
15968;SDS011;8085;53.472;9.794;2023-12-20T14:41:30;9.63;;;1.85;;
15968;SDS011;8085;53.472;9.794;2023-12-20T14:43:57;14.82;;;1.90;;
15968;SDS011;8085;53.472;9.794;2023-12-20T14:46:24;12.10;;;1.98;;
15968;SDS011;8085;53.472;9.794;2023-12-20T14:48:51;18.40;;;2.50;;
15968;SDS011;8085;53.472;9.794;2023-12-20T14:51:18;14.35;;;2.03;;
15968;SDS011;8085;53.472;9.794;2023-12-20T14:53:45;12.88;;;2.63;;